Impacts TAF Board
For situational awareness. Not to be used for flight planning purposes.
IDs:

KSAF - Santa Fe Cnty Muni, NM, US

Issued at 1736 UTC 08 Aug 2020
Updated at 2102 UTC 08 Aug 2020
Potential Impact None Slight Moderate High
Time2053Z 08/22Z 08/23Z 09/00Z 09/01Z 09/02Z 09/03Z 09/04Z 09/05Z 09/06Z 09/07Z 09/08Z 09/09Z 09/10Z>>
Type OBS PRVL PRVL PRVL PRVL PRVL PRVL PRVL PRVL PRVL PRVL PRVL PRVL PRVL
VIS 10 >6 >6 >6 >6 >6 >6 >6 >6 >6 >6 >6 >6 >6
CIG -- 120 120 120 120 110 110 110 110 110 110 110 110 110
Cover CLR BKN BKN BKN BKN BKN BKN BKN BKN BKN BKN BKN BKN BKN
FltCat VFR VFR VFR VFR VFR VFR VFR VFR VFR VFR VFR VFR VFR VFR
WX -- -- -- -- -- -- -- -- -- -- -- -- -- --
WDir 220 280 280 280 280 350 350 350 350 350 350 350 350 350
WSpd 9 10 10 10 10 7 7 7 7 7 7 7 7 7
WGst 21 18 18 18 18 -- -- -- -- -- -- -- -- --
Raw TAF
KSAF 081736Z 0818/0918 30007KT P6SM SCT120
  FM082000 28010G18KT P6SM BKN120
  FM090200 35007KT P6SM BKN110
  FM091700 27007KT P6SM SCT120


Raw METAR
KSAF 082053Z 22009G21KT 10SM CLR 33/01 A3022 RMK AO2 SLP111 T03330011 56018
KSAF 081953Z 26012G20KT 10SM CLR 33/03 A3024 RMK AO2 SLP118 T03280028
KSAF 081853Z 10SM CLR 31/04 A3026 RMK AO2 SLP126 T03060044

METAR Board
Radar Display
Forecast Discussion
For situational awareness. Not to be used for flight planning purposes.